Vernon, Alabama
Current Conditions -  °F | °C
As of 11:03 PM on Friday 19 Dec 2014 (Local Time) from KCBM Reporting Station
Overcast Overcast  
Wind Chill:   Ceiling: 5000
Heat Index:   Visibility: 10mi
Dew Point:   Wind: 6mph
Humidity: 93%   Direction: 20°NNE
Pressure: 30.21"   Gusts: NA
Location:  33.76°N, 88.11°W
Report Text: KCBM 200503Z AUTO 02005KT 10SM OVC050 05/04 A3021 RMK AO2 $
Loading
Personal Weather Stations






























Interactive Weather Map New forecast layout! Learn more

10-Day Weather Forecast

Advertisements
Track Severe Weather on mobile